createdAt,value
2022-09-28T16:38:36.667Z,5.80
2022-09-28T16:39:37.660Z,7.00
2022-09-28T16:40:37.691Z,5.70
2022-09-28T16:41:37.613Z,7.40
2022-09-28T16:42:48.671Z,11.90
2022-09-28T16:43:37.593Z,10.70
2022-09-28T16:44:37.599Z,10.10
2022-09-28T16:45:37.571Z,14.70
2022-09-28T16:46:37.762Z,16.20
2022-09-28T16:47:37.539Z,12.90
2022-09-28T16:48:37.516Z,8.10
2022-09-28T16:49:37.524Z,18.40
2022-09-28T16:50:37.491Z,16.60
2022-09-28T16:51:37.494Z,15.70
2022-09-28T16:52:37.485Z,11.90
2022-09-28T16:53:37.468Z,12.10
2022-09-28T16:54:37.452Z,13.40
2022-09-28T16:55:41.262Z,13.20
2022-09-28T16:56:37.417Z,15.10
2022-09-28T16:57:37.413Z,12.20
2022-09-28T16:58:37.433Z,12.40
2022-09-28T16:59:37.390Z,6.60
2022-09-28T17:00:37.391Z,17.00
2022-09-28T17:01:37.415Z,14.50
2022-09-28T17:02:46.653Z,19.10
2022-09-28T17:03:37.417Z,21.50
2022-09-28T17:04:37.316Z,12.80
2022-09-28T17:05:37.315Z,13.30
2022-09-28T17:06:37.301Z,12.60
2022-09-28T17:07:37.274Z,11.00
2022-09-28T17:08:37.278Z,11.30
2022-09-28T17:09:37.252Z,12.90
2022-09-28T17:10:50.182Z,14.20
2022-09-28T17:11:37.245Z,16.20
2022-09-28T17:12:37.226Z,23.90
2022-09-28T17:13:37.201Z,15.60
2022-09-28T17:14:37.214Z,15.30
2022-09-28T17:15:37.220Z,14.00
2022-09-28T17:17:03.793Z,10.40
2022-09-28T17:17:37.161Z,6.80
2022-09-28T17:18:37.152Z,9.10
2022-09-28T17:19:37.138Z,9.70
2022-09-28T17:20:37.143Z,8.60
2022-09-28T17:21:37.129Z,10.50
2022-09-28T17:22:37.096Z,8.60
2022-09-28T17:23:37.093Z,7.70
2022-09-28T17:24:37.094Z,11.20
2022-09-28T17:25:37.071Z,16.40
2022-09-28T17:26:37.066Z,18.90
2022-09-28T17:27:37.042Z,19.40
2022-09-28T17:28:37.026Z,18.60
2022-09-28T17:29:37.053Z,16.50
2022-09-28T17:30:37.077Z,14.20
2022-09-28T17:31:36.997Z,12.50
2022-09-28T17:32:36.992Z,11.90
2022-09-28T17:33:36.961Z,14.00
2022-09-28T17:34:36.964Z,10.40
2022-09-28T17:35:39.621Z,12.20
2022-09-28T17:36:36.947Z,11.10
2022-09-28T17:37:36.915Z,10.50
2022-09-28T17:38:37.667Z,10.50
2022-09-28T17:39:36.896Z,12.70
2022-09-28T17:40:36.933Z,9.30
2022-09-28T17:41:36.863Z,9.20
2022-09-28T17:42:36.846Z,10.10
2022-09-28T17:43:36.844Z,10.70
2022-09-28T17:44:36.824Z,11.40
2022-09-28T17:45:36.811Z,8.10
2022-09-28T17:46:36.895Z,6.90
2022-09-28T17:47:36.789Z,11.40
2022-09-28T17:48:36.782Z,10.30
2022-09-28T17:49:36.770Z,6.90
2022-09-28T17:50:36.755Z,5.70
2022-09-28T17:51:36.753Z,5.20
2022-09-28T17:52:36.727Z,7.70
2022-09-28T17:53:36.726Z,11.30
2022-09-28T17:54:36.700Z,9.70
2022-09-28T17:55:36.699Z,10.20
2022-09-28T17:56:36.685Z,9.00
2022-09-28T17:57:36.670Z,9.10
2022-09-28T17:58:36.657Z,6.30
2022-09-28T17:59:36.639Z,6.60
2022-09-28T18:00:36.638Z,5.20
2022-09-28T18:01:36.686Z,6.40
2022-09-28T18:02:36.682Z,5.80
2022-09-28T18:03:36.595Z,3.50
2022-09-28T18:04:51.200Z,6.90
2022-09-28T18:05:36.582Z,4.80
2022-09-28T18:06:36.576Z,7.10
2022-09-28T18:07:36.573Z,10.90
2022-09-28T18:08:36.542Z,6.60
2022-09-28T18:09:36.524Z,8.20
2022-09-28T18:10:36.515Z,7.60
2022-09-28T18:11:36.494Z,7.70
2022-09-28T18:12:36.496Z,6.50
2022-09-28T18:13:36.480Z,5.20
2022-09-28T18:14:36.466Z,5.20
2022-09-28T18:15:36.516Z,5.90
2022-09-28T18:16:36.435Z,3.00
2022-09-28T18:17:36.430Z,5.30
2022-09-28T18:18:36.414Z,3.50
2022-09-28T18:19:36.398Z,4.80
2022-09-28T18:20:36.392Z,6.40
2022-09-28T18:21:36.388Z,5.30
2022-09-28T18:22:36.381Z,3.40
2022-09-28T18:23:36.361Z,7.40
2022-09-28T18:24:36.346Z,7.30
2022-09-28T18:25:36.357Z,5.40
2022-09-28T18:26:36.330Z,5.40
2022-09-28T18:27:36.322Z,3.60
2022-09-28T18:28:36.290Z,3.60
2022-09-28T18:29:36.277Z,4.50
2022-09-28T18:30:36.272Z,5.40
2022-09-28T18:31:36.255Z,4.90
2022-09-28T18:32:36.244Z,4.80
2022-09-28T18:33:36.242Z,4.50
2022-09-28T18:34:36.246Z,4.80
2022-09-28T18:35:36.205Z,2.40
2022-09-28T18:36:36.211Z,5.60
2022-09-28T18:37:37.159Z,5.20
2022-09-28T18:38:36.201Z,3.60
2022-09-28T18:39:36.168Z,3.20
2022-09-28T18:40:36.220Z,2.50
2022-09-28T18:41:36.146Z,3.40
2022-09-28T18:42:36.131Z,4.20
2022-09-28T18:43:36.563Z,3.80
2022-09-28T18:44:36.099Z,3.80
2022-09-28T18:45:36.084Z,3.70
2022-09-28T18:46:36.269Z,5.30
2022-09-28T18:47:36.070Z,4.90
2022-09-28T18:48:36.070Z,4.40
2022-09-28T18:49:36.054Z,5.20
2022-09-28T18:50:36.034Z,3.30
2022-09-28T18:51:36.024Z,2.60
2022-09-28T18:52:36.046Z,3.10
2022-09-28T18:53:36.009Z,4.90
2022-09-28T18:54:35.992Z,3.20
2022-09-28T18:55:35.971Z,2.20
2022-09-28T18:56:35.979Z,5.20
2022-09-28T18:57:35.940Z,3.60
2022-09-28T18:58:35.950Z,4.20
2022-09-28T18:59:35.918Z,2.60
2022-09-28T19:00:35.928Z,2.80
2022-09-28T19:01:36.007Z,3.70
2022-09-28T19:02:36.012Z,3.20
2022-09-28T19:03:35.887Z,6.40
2022-09-28T19:04:35.868Z,3.40
2022-09-28T19:05:35.846Z,3.00
2022-09-28T19:06:35.836Z,3.20
2022-09-28T19:07:35.818Z,2.20
2022-09-28T19:08:35.828Z,3.40
2022-09-28T19:09:35.800Z,7.50
2022-09-28T19:10:35.802Z,5.30
2022-09-28T19:11:35.767Z,6.50
2022-09-28T19:12:35.781Z,3.10
2022-09-28T19:13:35.750Z,2.70
2022-09-28T19:14:35.752Z,2.70
2022-09-28T19:15:35.777Z,3.40
2022-09-28T19:16:35.739Z,3.90
2022-09-28T19:17:35.695Z,2.90
2022-09-28T19:18:35.689Z,2.90
2022-09-28T19:19:35.692Z,3.40
2022-09-28T19:20:35.669Z,4.80
2022-09-28T19:21:35.728Z,9.90
2022-09-28T19:22:35.661Z,6.40
2022-09-28T19:23:35.624Z,4.60
2022-09-28T19:24:35.628Z,2.80
2022-09-28T19:25:35.606Z,3.70
2022-09-28T19:26:35.591Z,6.30
2022-09-28T19:27:35.576Z,9.20
2022-09-28T19:28:35.571Z,9.90
2022-09-28T19:29:35.577Z,11.00
2022-09-28T19:30:35.588Z,4.20
2022-09-28T19:31:35.530Z,4.30
2022-09-28T19:32:35.518Z,5.50
2022-09-28T19:33:35.541Z,3.40
2022-09-28T19:34:35.519Z,4.50
2022-09-28T19:35:35.504Z,6.10
2022-09-28T19:36:35.478Z,6.80
2022-09-28T19:37:35.457Z,4.50
2022-09-28T19:38:35.466Z,3.90
2022-09-28T19:39:35.464Z,5.30
2022-09-28T19:40:35.518Z,4.90
2022-09-28T19:41:39.145Z,6.70
2022-09-28T19:42:35.424Z,4.20
2022-09-28T19:43:35.386Z,5.60
2022-09-28T19:44:35.392Z,6.20
2022-09-28T19:45:35.366Z,4.50
2022-09-28T19:46:35.414Z,3.50
2022-09-28T19:47:35.338Z,2.50
2022-09-28T19:48:35.327Z,3.20
2022-09-28T19:49:35.341Z,4.20
2022-09-28T19:50:35.306Z,4.50
2022-09-28T19:51:35.294Z,6.20
2022-09-28T19:52:35.285Z,8.10
2022-09-28T19:53:35.262Z,8.10
2022-09-28T19:54:36.691Z,8.00
2022-09-28T19:55:35.250Z,8.20
2022-09-28T19:56:35.235Z,8.60
2022-09-28T19:57:35.234Z,7.00
2022-09-28T19:58:35.231Z,3.60
2022-09-28T19:59:35.194Z,3.50
2022-09-28T20:00:35.214Z,3.40
2022-09-28T20:01:35.226Z,3.40
2022-09-28T20:02:35.262Z,4.70
2022-09-28T20:03:35.166Z,4.40
2022-09-28T20:04:35.156Z,2.70
2022-09-28T20:05:35.126Z,3.80
2022-09-28T20:06:35.104Z,2.20
2022-09-28T20:07:35.136Z,4.70
2022-09-28T20:08:35.083Z,3.00
2022-09-28T20:09:35.073Z,2.60
2022-09-28T20:10:35.097Z,2.30
2022-09-28T20:11:35.047Z,2.70
2022-09-28T20:12:35.037Z,3.20
2022-09-28T20:13:35.029Z,2.20
2022-09-28T20:14:38.231Z,1.40
2022-09-28T20:15:35.051Z,1.60
2022-09-28T20:16:34.985Z,3.10
2022-09-28T20:17:34.974Z,2.50
2022-09-28T20:18:34.963Z,1.90
2022-09-28T20:19:35.045Z,2.40
2022-09-28T20:20:34.962Z,1.40
2022-09-28T20:21:34.928Z,2.10
2022-09-28T20:22:34.930Z,2.40
2022-09-28T20:23:34.901Z,2.50
2022-09-28T20:24:34.894Z,1.80
2022-09-28T20:25:34.899Z,3.20
2022-09-28T20:26:34.925Z,4.60
2022-09-28T20:27:34.878Z,2.70
2022-09-28T20:28:34.840Z,1.50
2022-09-28T20:29:34.830Z,2.50
2022-09-28T20:30:34.819Z,3.30
2022-09-28T20:31:34.940Z,1.70
2022-09-28T20:32:34.795Z,4.10
2022-09-28T20:33:34.792Z,3.50
2022-09-28T20:34:34.776Z,2.70
2022-09-28T20:35:34.758Z,2.10
2022-09-28T20:36:34.760Z,4.00
2022-09-28T20:37:34.743Z,2.50
2022-09-28T20:38:34.722Z,4.30
2022-09-28T20:39:34.715Z,3.10
2022-09-28T20:40:34.750Z,3.50
2022-09-28T20:41:34.719Z,4.50
2022-09-28T20:42:34.680Z,3.50
2022-09-28T20:43:34.662Z,5.10
2022-09-28T20:44:34.651Z,2.30
2022-09-28T20:45:34.648Z,1.70
2022-09-28T20:46:34.796Z,6.50
2022-09-28T20:47:34.620Z,1.80
2022-09-28T20:48:34.605Z,3.50
2022-09-28T20:49:34.595Z,2.40
2022-09-28T20:50:34.577Z,1.50
2022-09-28T20:51:34.580Z,1.60
2022-09-28T20:52:34.562Z,3.50
2022-09-28T20:53:34.544Z,2.70
2022-09-28T20:54:34.536Z,1.80
2022-09-28T20:55:34.515Z,2.90
2022-09-28T20:56:34.513Z,1.80
2022-09-28T20:57:34.509Z,2.10
2022-09-28T20:58:34.493Z,2.10
2022-09-28T20:59:34.470Z,2.90
2022-09-28T21:00:34.458Z,3.80
2022-09-28T21:01:34.506Z,3.10
2022-09-28T21:02:34.506Z,3.90
2022-09-28T21:03:34.433Z,2.40
2022-09-28T21:04:34.410Z,2.30
2022-09-28T21:05:34.408Z,1.70
2022-09-28T21:06:34.387Z,2.20
2022-09-28T21:07:34.378Z,1.40
2022-09-28T21:08:34.360Z,3.90
2022-09-28T21:09:34.348Z,2.60
2022-09-28T21:10:34.345Z,2.20
2022-09-28T21:11:34.359Z,1.60
2022-09-28T21:12:34.325Z,4.00
2022-09-28T21:13:34.296Z,1.40
2022-09-28T21:14:34.302Z,3.60
2022-09-28T21:15:34.398Z,3.70
2022-09-28T21:16:34.263Z,1.60
2022-09-28T21:17:34.266Z,3.10
2022-09-28T21:18:34.258Z,2.30
2022-09-28T21:19:34.228Z,2.40
2022-09-28T21:20:34.217Z,1.90
2022-09-28T21:21:34.242Z,1.40
2022-09-28T21:22:34.191Z,3.10
2022-09-28T21:23:34.181Z,1.20
2022-09-28T21:24:34.171Z,2.20
2022-09-28T21:25:34.166Z,2.10
2022-09-28T21:26:34.136Z,2.10
2022-09-28T21:27:34.169Z,0.90
2022-09-28T21:28:34.121Z,1.40
2022-09-28T21:29:34.111Z,1.30
2022-09-28T21:30:34.091Z,1.50
2022-09-28T21:31:34.125Z,2.90
2022-09-28T21:32:34.081Z,1.80
2022-09-28T21:33:34.058Z,1.60
2022-09-28T21:34:34.044Z,1.50
2022-09-28T21:35:34.038Z,1.20
2022-09-28T21:36:34.019Z,0.60
2022-09-28T21:37:34.039Z,1.40
2022-09-28T21:38:34.003Z,1.70
2022-09-28T21:39:33.987Z,2.40
2022-09-28T21:40:34.044Z,3.50
2022-09-28T21:41:33.957Z,1.60
2022-09-28T21:42:33.963Z,3.10
2022-09-28T21:43:33.940Z,1.20
2022-09-28T21:44:33.925Z,1.50
2022-09-28T21:45:33.912Z,2.00
2022-09-28T21:46:34.018Z,2.80
2022-09-28T21:47:33.885Z,1.10
2022-09-28T21:48:33.881Z,1.50
2022-09-28T21:49:33.863Z,1.00
2022-09-28T21:50:33.854Z,1.10
2022-09-28T21:51:33.841Z,1.90
2022-09-28T21:52:33.855Z,0.80
2022-09-28T21:53:33.826Z,2.40
2022-09-28T21:54:33.807Z,2.10
2022-09-28T21:55:33.825Z,3.50
2022-09-28T21:56:33.795Z,2.10
2022-09-28T21:57:33.764Z,2.50
2022-09-28T21:58:33.758Z,1.70
2022-09-28T21:59:33.754Z,4.00
2022-09-28T22:00:33.736Z,1.60
2022-09-28T22:01:33.771Z,1.30
2022-09-28T22:02:33.762Z,4.40
2022-09-28T22:03:33.712Z,1.60
2022-09-28T22:04:33.679Z,1.90
2022-09-28T22:05:33.681Z,3.70
2022-09-28T22:06:33.655Z,3.40
2022-09-28T22:07:33.655Z,3.20
2022-09-28T22:08:33.641Z,1.40
2022-09-28T22:09:33.637Z,1.80
2022-09-28T22:10:33.606Z,1.80
2022-09-28T22:11:33.602Z,1.80
2022-09-28T22:12:33.583Z,2.60
2022-09-28T22:13:33.582Z,2.20
2022-09-28T22:14:33.585Z,1.90
2022-09-28T22:15:33.617Z,2.70
2022-09-28T22:16:33.533Z,1.30
2022-09-28T22:17:33.535Z,1.60
2022-09-28T22:18:33.518Z,1.50
2022-09-28T22:19:33.507Z,1.10
2022-09-28T22:20:33.483Z,1.80
2022-09-28T22:21:33.484Z,1.60
2022-09-28T22:22:33.461Z,1.80
2022-09-28T22:23:33.489Z,1.70
2022-09-28T22:24:33.442Z,1.80
2022-09-28T22:25:33.429Z,2.30
2022-09-28T22:26:33.434Z,2.90
2022-09-28T22:27:33.411Z,4.30
2022-09-28T22:28:33.399Z,3.50
2022-09-28T22:29:33.385Z,2.50
2022-09-28T22:30:33.388Z,2.10
2022-09-28T22:31:33.452Z,1.50
2022-09-28T22:32:33.356Z,1.30
2022-09-28T22:33:33.360Z,1.40
2022-09-28T22:34:33.341Z,1.90
2022-09-28T22:35:33.313Z,1.40
2022-09-28T22:36:33.300Z,2.00
2022-09-28T22:37:33.280Z,1.40
2022-09-28T22:38:33.269Z,1.60
2022-09-28T22:39:37.470Z,2.60
2022-09-28T22:40:33.329Z,2.30
2022-09-28T22:41:33.234Z,2.20
2022-09-28T22:42:39.741Z,1.90
2022-09-28T22:43:33.214Z,3.60
2022-09-28T22:44:33.209Z,1.90
2022-09-28T22:45:33.212Z,3.10
2022-09-28T22:46:33.219Z,1.90
2022-09-28T22:47:33.166Z,1.20
2022-09-28T22:48:33.152Z,1.10
2022-09-28T22:49:33.155Z,3.90
2022-09-28T22:50:33.132Z,1.10
2022-09-28T22:51:33.117Z,1.50
2022-09-28T22:52:33.108Z,1.30
2022-09-28T22:53:33.085Z,2.90
2022-09-28T22:54:33.077Z,2.40
2022-09-28T22:55:33.059Z,1.20
2022-09-28T22:56:33.073Z,2.90
2022-09-28T22:57:33.039Z,1.40
2022-09-28T22:58:33.024Z,1.90
2022-09-28T22:59:33.017Z,1.80
2022-09-28T23:00:32.994Z,2.20
2022-09-28T23:01:33.036Z,2.10
2022-09-28T23:02:33.088Z,1.90
2022-09-28T23:03:32.964Z,1.60
2022-09-28T23:04:32.967Z,4.80
2022-09-28T23:05:32.947Z,1.40
2022-09-28T23:06:32.923Z,2.00
2022-09-28T23:07:32.917Z,3.30
2022-09-28T23:08:32.928Z,3.10
2022-09-28T23:09:32.897Z,1.90
2022-09-28T23:10:32.879Z,2.00
2022-09-28T23:11:32.911Z,1.60
2022-09-28T23:12:32.871Z,1.70
2022-09-28T23:13:32.847Z,2.20
2022-09-28T23:14:32.844Z,1.50
2022-09-28T23:15:32.814Z,1.80
2022-09-28T23:16:32.845Z,1.40
2022-09-28T23:17:32.807Z,1.90
2022-09-28T23:18:32.778Z,1.30
2022-09-28T23:19:32.778Z,1.80
2022-09-28T23:20:32.772Z,1.20
2022-09-28T23:21:32.748Z,2.00
2022-09-28T23:22:32.743Z,1.60
2022-09-28T23:23:32.730Z,1.40
2022-09-28T23:24:32.718Z,2.00
2022-09-28T23:25:32.716Z,2.40
2022-09-28T23:26:32.705Z,2.00
2022-09-28T23:27:32.699Z,1.50
2022-09-28T23:28:32.670Z,0.80
2022-09-28T23:29:32.646Z,2.10
2022-09-28T23:30:32.627Z,2.00
2022-09-28T23:31:32.698Z,2.50
2022-09-28T23:32:32.613Z,1.40
2022-09-28T23:33:32.611Z,1.50
2022-09-28T23:34:32.593Z,2.60
2022-09-28T23:35:32.576Z,4.50
2022-09-28T23:36:32.573Z,1.40
2022-09-28T23:37:32.564Z,1.50
2022-09-28T23:38:32.538Z,1.00
2022-09-28T23:39:32.538Z,1.60
2022-09-28T23:40:32.590Z,2.40
2022-09-28T23:41:32.516Z,2.50
2022-09-28T23:42:32.485Z,1.40
2022-09-28T23:43:32.493Z,1.70
2022-09-28T23:44:32.461Z,2.60
2022-09-28T23:45:32.449Z,3.10
2022-09-28T23:46:32.500Z,2.70
2022-09-28T23:47:32.439Z,1.40
2022-09-28T23:48:32.414Z,2.70
2022-09-28T23:49:32.404Z,2.20
2022-09-28T23:50:32.390Z,1.90
2022-09-28T23:51:32.391Z,1.50
2022-09-28T23:52:32.370Z,2.10
2022-09-28T23:53:32.363Z,1.20
2022-09-28T23:54:32.366Z,1.70
2022-09-28T23:55:32.348Z,1.80
2022-09-28T23:56:32.336Z,2.80
2022-09-28T23:57:32.305Z,1.10
2022-09-28T23:58:32.301Z,3.70
2022-09-28T23:59:32.285Z,1.40
